Main page
METAR-TAF:

METAR-TAF

Airports :

Stornoway Airport

Stornoway, Scotland

latitude: 58-13N, longitude: 006-19W, elevation: 9 m

Current weather observation

The report was made 14 minutes ago, at 04:20 UTC
Wind 10 kt from the Southwest
Temperature 12°C
Humidity 88%
Pressure 998 hPa
Visibility 10 km or more

METAR: EGPO 160420Z AUTO 22010KT 9999 FEW022/// SCT048/// 12/10 Q0998 RERA

Time: 05:34 (04:34 UTC)

Forecast

The report was made 2 hours and 31 minutes ago, at 02:03 UTC
Forecast valid from 16 at 03 UTC to 16 at 12 UTC
Wind 14 kt from the South/Southwest
Visibility 10 km or more
Scattered clouds at a height of 3000 ft
Probability 40% :
Temporary
from 16 at 03 UTC to 16 at 12 UTC
Visibility: 7000 m
rain showers

TAF: EGPO 160203Z 1603/1612 21014KT 9999 SCT030 PROB40 TEMPO 1603/1612 7000 SHRA

Weather observations and forecasts of more than 4000 airports (METAR and TAF reports).

The available stations are represented by yellow and red dots on the map.

Hover mouse over dot to see the name of the station.

Then click to see weather observations and forecasts.

To change the map : click on the green buttons with a black cross to zoom in, on the green button with a dash to zoom out, or on the green arrows for adjacent maps.


METAR-TAF: